createdAt,value
2023-04-30T00:00:36.304Z,100.00
2023-04-30T00:03:08.493Z,100.00
2023-04-30T00:05:40.457Z,100.00
2023-04-30T00:08:12.297Z,100.00
2023-04-30T00:10:44.889Z,100.00
2023-04-30T00:13:17.477Z,100.00
2023-04-30T00:15:49.880Z,100.00
2023-04-30T00:18:22.190Z,100.00
2023-04-30T00:20:54.100Z,100.00
2023-04-30T00:23:26.640Z,100.00
2023-04-30T00:26:20.360Z,100.00
2023-04-30T00:28:53.473Z,100.00
2023-04-30T00:31:25.427Z,100.00
2023-04-30T00:33:57.941Z,100.00
2023-04-30T00:36:30.638Z,100.00
2023-04-30T00:39:05.810Z,100.00
2023-04-30T00:41:41.552Z,100.00
2023-04-30T00:44:13.719Z,100.00
2023-04-30T00:46:45.960Z,100.00
2023-04-30T00:49:18.132Z,100.00
2023-04-30T00:51:51.362Z,100.00
2023-04-30T00:54:24.980Z,100.00
2023-04-30T00:56:55.204Z,100.00
2023-04-30T00:59:30.353Z,100.00
2023-04-30T01:02:04.273Z,100.00
2023-04-30T01:04:37.144Z,100.00
2023-04-30T01:07:09.549Z,100.00
2023-04-30T01:09:41.874Z,100.00
2023-04-30T01:12:22.656Z,100.00
2023-04-30T01:15:03.473Z,100.00
2023-04-30T01:17:43.297Z,100.00
2023-04-30T01:20:16.859Z,100.00
2023-04-30T01:23:00.718Z,100.00
2023-04-30T01:25:55.555Z,100.00
2023-04-30T01:28:29.682Z,100.00
2023-04-30T01:31:03.810Z,100.00
2023-04-30T01:33:36.111Z,100.00
2023-04-30T01:36:27.807Z,100.00
2023-04-30T01:39:16.186Z,100.00
2023-04-30T01:41:57.494Z,100.00
2023-04-30T01:44:44.799Z,100.00
2023-04-30T01:47:26.363Z,100.00
2023-04-30T01:50:17.248Z,100.00
2023-04-30T01:52:53.136Z,100.00
2023-04-30T01:55:30.513Z,100.00
2023-04-30T01:58:05.600Z,100.00
2023-04-30T02:00:38.830Z,100.00
2023-04-30T02:03:11.399Z,100.00
2023-04-30T02:05:43.513Z,100.00
2023-04-30T02:08:15.477Z,100.00
2023-04-30T02:10:47.821Z,100.00
2023-04-30T02:13:20.577Z,100.00
2023-04-30T02:15:52.582Z,100.00
2023-04-30T02:18:25.051Z,100.00
2023-04-30T02:20:56.947Z,100.00
2023-04-30T02:23:29.395Z,100.00
2023-04-30T02:26:01.676Z,100.00
2023-04-30T02:28:33.772Z,100.00
2023-04-30T02:31:05.765Z,100.00
2023-04-30T02:33:37.914Z,100.00
2023-04-30T02:36:10.763Z,100.00
2023-04-30T02:38:43.230Z,100.00
2023-04-30T02:41:15.130Z,100.00
2023-04-30T02:43:47.051Z,100.00
2023-04-30T02:46:19.521Z,100.00
2023-04-30T02:48:51.714Z,100.00
2023-04-30T02:51:23.670Z,100.00
2023-04-30T02:53:56.238Z,100.00
2023-04-30T02:56:28.830Z,100.00
2023-04-30T02:59:00.749Z,100.00
2023-04-30T03:01:32.933Z,100.00
2023-04-30T03:04:05.253Z,100.00
2023-04-30T03:06:37.704Z,100.00
2023-04-30T03:09:09.908Z,100.00
2023-04-30T03:11:42.520Z,100.00
2023-04-30T03:14:14.646Z,100.00
2023-04-30T03:16:46.785Z,100.00
2023-04-30T03:19:22.421Z,100.00
2023-04-30T03:21:54.630Z,100.00
2023-04-30T03:24:26.664Z,100.00
2023-04-30T03:26:58.645Z,100.00
2023-04-30T03:29:30.891Z,100.00
2023-04-30T03:32:03.194Z,100.00
2023-04-30T03:34:35.706Z,100.00
2023-04-30T03:37:07.735Z,100.00
2023-04-30T03:39:39.777Z,100.00
2023-04-30T03:42:12.186Z,100.00
2023-04-30T03:44:46.137Z,100.00
2023-04-30T03:47:18.197Z,100.00
2023-04-30T03:49:55.686Z,100.00
2023-04-30T03:52:28.496Z,100.00
2023-04-30T03:55:00.687Z,100.00
2023-04-30T03:57:33.059Z,100.00
2023-04-30T04:00:09.192Z,100.00
2023-04-30T04:02:52.686Z,100.00
2023-04-30T04:05:25.772Z,100.00
2023-04-30T04:07:57.818Z,100.00
2023-04-30T04:10:30.147Z,100.00
2023-04-30T04:13:02.713Z,100.00
2023-04-30T04:15:35.026Z,100.00
2023-04-30T04:18:08.914Z,100.00
2023-04-30T04:20:40.972Z,100.00
2023-04-30T04:23:16.370Z,100.00
2023-04-30T04:25:49.849Z,100.00
2023-04-30T04:28:22.022Z,100.00
2023-04-30T04:30:54.383Z,100.00
2023-04-30T04:33:26.808Z,100.00
2023-04-30T04:35:59.579Z,100.00
2023-04-30T04:38:35.175Z,100.00
2023-04-30T04:41:07.954Z,100.00
2023-04-30T04:43:39.992Z,100.00
2023-04-30T04:46:14.341Z,100.00
2023-04-30T04:48:47.162Z,100.00
2023-04-30T04:51:19.329Z,100.00
2023-04-30T04:53:54.640Z,100.00
2023-04-30T04:56:26.790Z,100.00
2023-04-30T04:58:59.982Z,100.00
2023-04-30T05:01:32.296Z,100.00
2023-04-30T05:04:05.226Z,100.00
2023-04-30T05:06:37.797Z,100.00
2023-04-30T05:09:10.651Z,100.00
2023-04-30T05:11:44.078Z,100.00
2023-04-30T05:14:16.366Z,100.00
2023-04-30T05:16:49.466Z,100.00
2023-04-30T05:19:21.606Z,100.00
2023-04-30T05:21:53.593Z,100.00
2023-04-30T05:24:25.634Z,100.00
2023-04-30T05:26:57.998Z,100.00
2023-04-30T05:29:29.985Z,100.00
2023-04-30T05:32:03.354Z,100.00
2023-04-30T05:34:35.799Z,100.00
2023-04-30T05:37:07.937Z,100.00
2023-04-30T05:39:40.148Z,100.00
2023-04-30T05:42:12.855Z,100.00
2023-04-30T05:44:45.105Z,100.00
2023-04-30T05:47:17.188Z,100.00
2023-04-30T05:49:49.082Z,100.00
2023-04-30T05:52:22.573Z,100.00
2023-04-30T05:54:54.555Z,100.00
2023-04-30T05:57:26.829Z,100.00
2023-04-30T05:59:59.146Z,100.00
2023-04-30T06:02:31.492Z,100.00
2023-04-30T06:05:04.117Z,100.00
2023-04-30T06:07:36.985Z,100.00
2023-04-30T06:10:11.101Z,100.00
2023-04-30T06:12:43.205Z,100.00
2023-04-30T06:15:15.496Z,100.00
2023-04-30T06:17:47.716Z,100.00
2023-04-30T06:20:20.786Z,100.00
2023-04-30T06:22:53.337Z,100.00
2023-04-30T06:25:24.728Z,100.00
2023-04-30T06:27:57.696Z,100.00
2023-04-30T06:30:31.700Z,100.00
2023-04-30T06:33:04.925Z,100.00
2023-04-30T06:35:37.348Z,100.00
2023-04-30T06:38:09.378Z,100.00
2023-04-30T06:40:43.496Z,100.00
2023-04-30T06:43:15.820Z,100.00
2023-04-30T06:45:50.931Z,100.00
2023-04-30T06:48:23.456Z,100.00
2023-04-30T06:50:55.539Z,100.00
2023-04-30T06:53:28.032Z,100.00
2023-04-30T06:56:02.468Z,100.00
2023-04-30T06:58:37.320Z,100.00
2023-04-30T07:01:09.712Z,100.00
2023-04-30T07:03:46.121Z,100.00
2023-04-30T07:06:18.514Z,100.00
2023-04-30T07:08:51.469Z,100.00
2023-04-30T07:11:23.794Z,100.00
2023-04-30T07:13:56.046Z,100.00
2023-04-30T07:16:29.351Z,100.00
2023-04-30T07:19:00.227Z,100.00
2023-04-30T07:21:33.008Z,100.00
2023-04-30T07:24:05.905Z,100.00
2023-04-30T07:26:43.552Z,100.00
2023-04-30T07:29:19.144Z,100.00
2023-04-30T07:31:52.000Z,100.00
2023-04-30T07:34:24.761Z,100.00
2023-04-30T07:36:56.851Z,100.00
2023-04-30T07:39:29.000Z,100.00
2023-04-30T07:42:03.665Z,100.00
2023-04-30T07:44:35.975Z,100.00
2023-04-30T07:47:08.207Z,100.00
2023-04-30T07:49:40.608Z,100.00
2023-04-30T07:52:12.794Z,100.00
2023-04-30T07:54:44.964Z,100.00
2023-04-30T07:57:16.963Z,100.00
2023-04-30T07:59:51.388Z,100.00
2023-04-30T08:02:25.311Z,100.00
2023-04-30T08:04:57.409Z,100.00
2023-04-30T08:07:29.438Z,100.00
2023-04-30T08:10:02.338Z,100.00
2023-04-30T08:12:37.309Z,100.00
2023-04-30T08:15:10.761Z,100.00
2023-04-30T08:17:43.187Z,100.00
2023-04-30T08:20:16.026Z,100.00
2023-04-30T08:22:48.533Z,100.00
2023-04-30T08:25:20.536Z,100.00
2023-04-30T08:27:52.576Z,100.00
2023-04-30T08:30:25.248Z,100.00
2023-04-30T08:32:57.870Z,100.00
2023-04-30T08:35:30.358Z,100.00
2023-04-30T08:38:02.225Z,100.00
2023-04-30T08:40:51.215Z,100.00
2023-04-30T08:43:24.551Z,100.00
2023-04-30T08:45:57.125Z,100.00
2023-04-30T08:48:29.751Z,100.00
2023-04-30T08:51:04.430Z,100.00
2023-04-30T08:53:39.616Z,100.00
2023-04-30T08:56:13.544Z,100.00
2023-04-30T08:58:45.959Z,100.00
2023-04-30T09:01:18.785Z,100.00
2023-04-30T09:03:51.025Z,100.00
2023-04-30T09:06:23.348Z,100.00
2023-04-30T09:08:55.797Z,100.00
2023-04-30T09:11:29.966Z,100.00
2023-04-30T09:14:03.604Z,100.00
2023-04-30T09:16:49.336Z,100.00
2023-04-30T09:19:29.089Z,100.00
2023-04-30T09:22:02.175Z,100.00
2023-04-30T09:24:49.748Z,100.00
2023-04-30T09:27:23.438Z,100.00
2023-04-30T09:29:55.763Z,100.00
2023-04-30T09:32:28.197Z,100.00
2023-04-30T09:35:00.701Z,100.00
2023-04-30T09:37:41.382Z,100.00
2023-04-30T09:40:14.575Z,100.00
2023-04-30T09:45:51.761Z,100.00
2023-04-30T09:48:25.485Z,100.00
2023-04-30T09:50:57.611Z,95.71
2023-04-30T09:53:30.481Z,93.02
2023-04-30T09:56:08.596Z,92.99
2023-04-30T09:58:44.681Z,90.61
2023-04-30T10:01:16.831Z,94.67
2023-04-30T10:03:50.447Z,91.31
2023-04-30T10:06:24.547Z,92.07
2023-04-30T10:08:59.834Z,90.58
2023-04-30T10:11:38.281Z,86.26
2023-04-30T10:14:14.387Z,82.97
2023-04-30T10:16:52.983Z,84.54
2023-04-30T10:19:27.432Z,84.17
2023-04-30T10:22:01.884Z,84.02
2023-04-30T10:24:37.655Z,84.84
2023-04-30T10:27:11.040Z,86.40
2023-04-30T10:29:46.762Z,86.38
2023-04-30T10:32:19.886Z,83.22
2023-04-30T10:35:02.600Z,81.35
2023-04-30T10:37:38.350Z,79.62
2023-04-30T10:40:12.941Z,75.27
2023-04-30T10:42:49.714Z,79.31
2023-04-30T10:45:35.993Z,76.61
2023-04-30T10:48:08.647Z,75.59
2023-04-30T10:50:46.472Z,73.84
2023-04-30T10:53:23.528Z,78.24
2023-04-30T10:56:00.841Z,78.48
2023-04-30T10:58:34.696Z,75.82
2023-04-30T11:01:08.841Z,71.07
2023-04-30T11:03:42.676Z,71.69
2023-04-30T11:06:20.260Z,74.25
2023-04-30T11:08:52.627Z,71.77
2023-04-30T11:11:24.806Z,70.06
2023-04-30T11:14:03.488Z,70.51
2023-04-30T11:16:37.785Z,70.25
2023-04-30T11:19:15.695Z,69.18
2023-04-30T11:22:20.723Z,70.28
2023-04-30T11:25:02.917Z,70.78
2023-04-30T11:27:35.848Z,72.90
2023-04-30T11:30:15.560Z,71.25
2023-04-30T11:32:49.411Z,69.72
2023-04-30T11:35:22.651Z,67.95
2023-04-30T11:37:59.558Z,68.56
2023-04-30T11:40:36.958Z,69.68
2023-04-30T11:43:09.071Z,71.76
2023-04-30T11:45:42.816Z,68.93
2023-04-30T11:48:16.259Z,67.55
2023-04-30T11:50:48.788Z,64.70
2023-04-30T11:53:28.129Z,66.55
2023-04-30T11:56:04.001Z,67.10
2023-04-30T11:58:40.503Z,64.82
2023-04-30T12:01:13.442Z,66.60
2023-04-30T12:03:47.134Z,66.25
2023-04-30T12:06:27.952Z,66.36
2023-04-30T12:09:02.035Z,64.78
2023-04-30T12:11:35.299Z,64.72
2023-04-30T12:14:10.979Z,61.41
2023-04-30T12:16:49.619Z,62.70
2023-04-30T12:19:25.508Z,62.91
2023-04-30T12:21:58.262Z,61.45
2023-04-30T12:24:30.591Z,60.24
2023-04-30T12:27:04.517Z,62.28
2023-04-30T12:29:36.681Z,60.91
2023-04-30T12:32:08.935Z,58.85
2023-04-30T12:34:43.365Z,57.84
2023-04-30T12:37:18.907Z,60.40
2023-04-30T12:39:52.110Z,57.82
2023-04-30T12:42:22.459Z,54.73
2023-04-30T12:44:55.202Z,57.77
2023-04-30T12:47:28.282Z,56.92
2023-04-30T12:50:01.315Z,58.79
2023-04-30T12:52:36.011Z,58.97
2023-04-30T12:55:21.180Z,56.61
2023-04-30T12:58:10.436Z,55.87
2023-04-30T13:00:52.084Z,58.59
2023-04-30T13:03:25.049Z,56.75
2023-04-30T13:05:58.937Z,59.40
2023-04-30T13:08:37.246Z,55.89
2023-04-30T13:11:18.830Z,56.79
2023-04-30T13:13:51.566Z,56.55
2023-04-30T13:16:25.031Z,55.85
2023-04-30T13:18:57.540Z,54.40
2023-04-30T13:21:29.627Z,54.78
2023-04-30T13:24:02.190Z,53.96
2023-04-30T13:26:34.995Z,55.99
2023-04-30T13:29:07.794Z,55.95
2023-04-30T13:31:40.011Z,53.36
2023-04-30T13:34:12.393Z,53.62
2023-04-30T13:36:47.082Z,54.23
2023-04-30T13:39:19.909Z,53.20
2023-04-30T13:41:50.888Z,51.45
2023-04-30T13:44:23.175Z,51.26
2023-04-30T13:46:56.390Z,50.84
2023-04-30T13:49:29.439Z,51.06
2023-04-30T13:52:01.807Z,50.90
2023-04-30T13:54:34.397Z,51.16
2023-04-30T13:57:07.097Z,50.88
2023-04-30T13:59:39.425Z,50.65
2023-04-30T14:02:11.523Z,49.82
2023-04-30T14:04:54.661Z,49.56
2023-04-30T14:07:36.252Z,49.95
2023-04-30T14:10:11.264Z,49.56
2023-04-30T14:12:44.916Z,51.16
2023-04-30T14:15:17.086Z,53.05
2023-04-30T14:17:54.667Z,52.47
2023-04-30T14:20:27.317Z,49.68
2023-04-30T14:23:00.400Z,48.52
2023-04-30T14:25:34.525Z,50.31
2023-04-30T14:28:06.796Z,50.75
2023-04-30T14:30:39.136Z,48.73
2023-04-30T14:33:13.165Z,48.47
2023-04-30T14:35:45.768Z,47.43
2023-04-30T14:38:17.891Z,48.11
2023-04-30T14:40:50.474Z,47.61
2023-04-30T14:43:22.426Z,47.93
2023-04-30T14:45:55.369Z,47.65
2023-04-30T14:48:27.700Z,47.10
2023-04-30T14:50:59.757Z,46.33
2023-04-30T14:53:33.840Z,45.83
2023-04-30T14:56:07.412Z,46.60
2023-04-30T14:58:39.536Z,46.08
2023-04-30T15:01:12.841Z,45.02
2023-04-30T15:03:45.375Z,46.31
2023-04-30T15:06:18.166Z,46.33
2023-04-30T15:08:50.293Z,46.20
2023-04-30T15:11:22.699Z,45.34
2023-04-30T15:13:55.902Z,45.92
2023-04-30T15:16:29.565Z,45.71
2023-04-30T15:19:02.675Z,44.06
2023-04-30T15:21:34.864Z,45.29
2023-04-30T15:24:08.356Z,45.03
2023-04-30T15:26:41.372Z,45.36
2023-04-30T15:29:14.457Z,43.79
2023-04-30T15:31:52.089Z,45.57
2023-04-30T15:34:26.665Z,44.93
2023-04-30T15:37:00.634Z,43.46
2023-04-30T15:39:35.497Z,42.40
2023-04-30T15:42:08.630Z,43.85
2023-04-30T15:44:42.532Z,43.78
2023-04-30T15:47:19.342Z,44.14
2023-04-30T15:49:52.241Z,43.42
2023-04-30T15:52:25.685Z,41.78
2023-04-30T15:54:58.840Z,43.61
2023-04-30T15:57:30.820Z,43.66
2023-04-30T16:00:06.780Z,42.59
2023-04-30T16:02:45.949Z,43.07
2023-04-30T16:05:19.619Z,41.65
2023-04-30T16:08:07.626Z,42.02
2023-04-30T16:10:46.657Z,41.43
2023-04-30T16:13:23.825Z,41.71
2023-04-30T16:15:57.968Z,42.07
2023-04-30T16:18:35.084Z,42.58
2023-04-30T16:21:10.810Z,41.73
2023-04-30T16:23:44.840Z,41.69
2023-04-30T16:26:17.865Z,42.19
2023-04-30T16:28:58.189Z,42.01
2023-04-30T16:31:36.610Z,42.40
2023-04-30T16:34:22.429Z,41.56
2023-04-30T16:37:01.679Z,41.68
2023-04-30T16:39:34.675Z,41.48
2023-04-30T16:42:08.067Z,41.97
2023-04-30T16:44:38.306Z,42.52
2023-04-30T16:47:10.576Z,43.07
2023-04-30T16:49:43.129Z,42.53
2023-04-30T16:52:15.181Z,42.55
2023-04-30T16:54:47.168Z,42.39
2023-04-30T16:57:19.295Z,43.27
2023-04-30T16:59:51.388Z,43.80
2023-04-30T17:02:25.842Z,42.89
2023-04-30T17:04:57.885Z,43.63
2023-04-30T17:07:29.953Z,44.24
2023-04-30T17:10:02.550Z,45.12
2023-04-30T17:12:34.962Z,45.04
2023-04-30T17:15:08.237Z,45.74
2023-04-30T17:17:41.240Z,46.52
2023-04-30T17:20:14.982Z,47.22
2023-04-30T17:22:47.689Z,46.96
2023-04-30T17:25:19.750Z,46.66
2023-04-30T17:27:51.903Z,46.67
2023-04-30T17:30:26.424Z,47.08
2023-04-30T17:33:02.087Z,47.90
2023-04-30T17:35:35.133Z,47.15
2023-04-30T17:38:07.302Z,47.96
2023-04-30T17:40:39.394Z,47.22
2023-04-30T17:43:11.678Z,49.03
2023-04-30T17:45:48.305Z,50.24
2023-04-30T17:48:33.728Z,49.91
2023-04-30T17:51:07.664Z,51.03
2023-04-30T17:53:42.054Z,51.95
2023-04-30T17:56:16.580Z,54.00
2023-04-30T17:58:51.044Z,53.55
2023-04-30T18:01:27.087Z,54.37
2023-04-30T18:04:04.913Z,55.07
2023-04-30T18:06:38.726Z,57.14
2023-04-30T18:09:12.185Z,58.11
2023-04-30T18:11:45.324Z,58.16
2023-04-30T18:14:19.180Z,57.79
2023-04-30T18:16:54.844Z,58.56
2023-04-30T18:19:29.588Z,59.09
2023-04-30T18:22:03.841Z,58.77
2023-04-30T18:24:37.728Z,58.69
2023-04-30T18:27:10.420Z,60.40
2023-04-30T18:29:44.619Z,61.10
2023-04-30T18:32:17.760Z,62.32
2023-04-30T18:34:49.858Z,61.80
2023-04-30T18:37:22.105Z,62.79
2023-04-30T18:39:55.051Z,62.88
2023-04-30T18:42:27.200Z,62.02
2023-04-30T18:44:59.454Z,61.40
2023-04-30T18:47:33.326Z,60.83
2023-04-30T18:50:10.824Z,62.08
2023-04-30T18:52:44.048Z,62.85
2023-04-30T18:55:16.786Z,64.07
2023-04-30T18:57:50.811Z,64.40
2023-04-30T19:00:23.228Z,65.55
2023-04-30T19:02:55.836Z,65.06
2023-04-30T19:05:28.243Z,65.00
2023-04-30T19:08:00.614Z,65.26
2023-04-30T19:10:32.875Z,65.64
2023-04-30T19:13:05.388Z,66.10
2023-04-30T19:15:37.445Z,64.85
2023-04-30T19:18:11.011Z,66.05
2023-04-30T19:20:43.575Z,66.08
2023-04-30T19:23:15.810Z,67.82
2023-04-30T19:25:50.678Z,68.56
2023-04-30T19:28:22.916Z,68.18
2023-04-30T19:30:56.490Z,68.91
2023-04-30T19:33:30.329Z,69.11
2023-04-30T19:36:03.223Z,68.90
2023-04-30T19:38:35.352Z,68.83
2023-04-30T19:41:07.584Z,69.67
2023-04-30T19:43:40.393Z,68.99
2023-04-30T19:46:13.074Z,68.79
2023-04-30T19:48:47.510Z,69.96
2023-04-30T19:51:20.318Z,70.28
2023-04-30T19:53:53.346Z,72.48
2023-04-30T19:56:25.847Z,73.40
2023-04-30T19:58:58.266Z,73.80
2023-04-30T20:01:30.660Z,72.44
2023-04-30T20:04:04.918Z,71.23
2023-04-30T20:06:38.985Z,71.72
2023-04-30T20:09:12.054Z,71.83
2023-04-30T20:11:53.959Z,72.58
2023-04-30T20:14:31.906Z,72.90
2023-04-30T20:17:05.238Z,73.88
2023-04-30T20:19:40.113Z,75.44
2023-04-30T20:22:17.139Z,75.57
2023-04-30T20:24:54.068Z,75.08
2023-04-30T20:27:35.863Z,76.95
2023-04-30T20:30:17.766Z,76.36
2023-04-30T20:32:51.425Z,76.81
2023-04-30T20:35:23.941Z,76.61
2023-04-30T20:37:55.967Z,76.91
2023-04-30T20:40:28.425Z,76.63
2023-04-30T20:43:00.749Z,76.70
2023-04-30T20:45:33.635Z,77.35
2023-04-30T20:48:06.059Z,78.36
2023-04-30T20:50:38.824Z,77.67
2023-04-30T20:53:12.024Z,78.44
2023-04-30T20:56:04.719Z,81.98
2023-04-30T20:58:37.244Z,83.06
2023-04-30T21:01:09.305Z,83.44
2023-04-30T21:03:41.559Z,82.68
2023-04-30T21:06:13.426Z,83.82
2023-04-30T21:08:45.416Z,83.04
2023-04-30T21:11:17.447Z,82.01
2023-04-30T21:13:51.255Z,81.68
2023-04-30T21:16:23.736Z,83.71
2023-04-30T21:18:56.202Z,83.26
2023-04-30T21:21:28.955Z,82.97
2023-04-30T21:24:01.724Z,82.47
2023-04-30T21:26:34.006Z,82.46
2023-04-30T21:29:06.145Z,84.58
2023-04-30T21:31:39.060Z,84.01
2023-04-30T21:34:11.126Z,85.40
2023-04-30T21:36:43.447Z,86.84
2023-04-30T21:39:15.472Z,87.48
2023-04-30T21:41:47.448Z,85.56
2023-04-30T21:44:20.971Z,84.61
2023-04-30T21:46:53.178Z,84.47
2023-04-30T21:49:25.245Z,87.16
2023-04-30T21:51:58.832Z,88.52
2023-04-30T21:54:29.048Z,89.38
2023-04-30T21:57:01.244Z,90.82
2023-04-30T21:59:34.837Z,87.80
2023-04-30T22:02:19.920Z,89.92
2023-04-30T22:04:55.814Z,90.05
2023-04-30T22:07:28.383Z,89.02
2023-04-30T22:10:00.565Z,88.53
2023-04-30T22:12:32.940Z,88.18
2023-04-30T22:15:09.396Z,88.08
2023-04-30T22:17:41.906Z,87.45
2023-04-30T22:20:15.111Z,87.79
2023-04-30T22:22:47.025Z,88.16
2023-04-30T22:25:20.416Z,89.22
2023-04-30T22:27:52.532Z,89.42
2023-04-30T22:30:24.982Z,89.89
2023-04-30T22:33:00.236Z,88.20
2023-04-30T22:35:33.278Z,87.88
2023-04-30T22:38:11.315Z,87.96
2023-04-30T22:40:43.637Z,90.04
2023-04-30T22:43:16.562Z,89.94
2023-04-30T22:45:48.805Z,91.01
2023-04-30T22:48:21.015Z,92.50
2023-04-30T22:50:53.288Z,92.38
2023-04-30T22:53:25.339Z,92.48
2023-04-30T22:55:58.280Z,92.22
2023-04-30T22:58:30.353Z,92.04
2023-04-30T23:01:02.684Z,91.67
2023-04-30T23:03:35.800Z,91.60
2023-04-30T23:06:08.031Z,91.73
2023-04-30T23:08:40.210Z,91.19
2023-04-30T23:11:12.745Z,90.52
2023-04-30T23:13:44.961Z,91.63
2023-04-30T23:16:17.881Z,95.23
2023-04-30T23:18:50.090Z,95.93
2023-04-30T23:21:22.225Z,95.87
2023-04-30T23:23:54.464Z,96.09
2023-04-30T23:26:26.772Z,96.51
2023-04-30T23:28:59.747Z,97.73
2023-04-30T23:31:34.602Z,99.48
2023-04-30T23:34:06.930Z,100.00
2023-04-30T23:36:39.014Z,100.00
2023-04-30T23:39:10.982Z,100.00
2023-04-30T23:41:43.872Z,100.00
2023-04-30T23:44:15.839Z,99.94
2023-04-30T23:46:48.096Z,100.00
2023-04-30T23:49:20.778Z,99.76
2023-04-30T23:51:53.502Z,99.43
2023-04-30T23:54:25.472Z,99.11
2023-04-30T23:56:57.469Z,98.42
2023-04-30T23:59:29.536Z,98.12
